createdAt,value
2023-05-11T00:02:23.251Z,17.96
2023-05-11T00:07:24.952Z,17.77
2023-05-11T00:12:26.677Z,17.97
2023-05-11T00:17:29.763Z,17.94
2023-05-11T00:22:31.563Z,17.96
2023-05-11T00:27:33.326Z,17.90
2023-05-11T00:32:36.817Z,17.89
2023-05-11T00:37:38.698Z,17.99
2023-05-11T00:42:40.407Z,17.67
2023-05-11T00:47:43.450Z,18.12
2023-05-11T00:52:45.277Z,17.98
2023-05-11T00:57:46.985Z,17.92
2023-05-11T01:02:50.232Z,17.93
2023-05-11T01:07:54.923Z,17.78
2023-05-11T01:12:59.182Z,17.68
2023-05-11T01:18:07.941Z,17.44
2023-05-11T01:23:16.836Z,17.47
2023-05-11T01:28:40.962Z,17.56
2023-05-11T01:33:47.703Z,17.54
2023-05-11T01:38:49.444Z,17.53
2023-05-11T01:43:53.647Z,17.54
2023-05-11T01:48:56.958Z,17.72
2023-05-11T01:53:58.731Z,17.58
2023-05-11T01:59:00.433Z,17.43
2023-05-11T02:04:04.052Z,17.64
2023-05-11T02:09:05.757Z,17.55
2023-05-11T02:14:09.045Z,17.61
2023-05-11T02:19:12.355Z,17.65
2023-05-11T02:24:14.106Z,17.66
2023-05-11T02:29:16.528Z,17.63
2023-05-11T02:34:23.322Z,17.62
2023-05-11T02:39:27.031Z,17.66
2023-05-11T02:44:31.667Z,17.66
2023-05-11T02:49:35.906Z,17.69
2023-05-11T02:54:37.730Z,17.64
2023-05-11T02:59:39.711Z,17.70
2023-05-11T03:04:42.976Z,17.69
2023-05-11T03:09:44.799Z,17.68
2023-05-11T03:14:46.688Z,17.44
2023-05-11T03:19:49.891Z,17.46
2023-05-11T03:24:52.315Z,17.40
2023-05-11T03:29:54.647Z,17.47
2023-05-11T03:34:58.138Z,17.58
2023-05-11T03:40:00.290Z,17.57
2023-05-11T03:45:07.956Z,17.46
2023-05-11T03:50:11.401Z,17.57
2023-05-11T03:55:13.324Z,17.74
2023-05-11T04:00:16.467Z,17.90
2023-05-11T04:05:20.310Z,18.02
2023-05-11T04:10:22.549Z,18.00
2023-05-11T04:15:24.294Z,17.88
2023-05-11T04:20:27.403Z,17.89
2023-05-11T04:25:29.132Z,18.04
2023-05-11T04:30:30.810Z,18.17
2023-05-11T04:35:33.840Z,18.26
2023-05-11T04:40:36.129Z,18.16
2023-05-11T04:45:38.123Z,18.12
2023-05-11T04:50:41.300Z,18.11
2023-05-11T04:55:43.114Z,18.09
2023-05-11T05:00:45.355Z,18.02
2023-05-11T05:05:49.130Z,18.20
2023-05-11T05:10:51.196Z,18.39
2023-05-11T05:15:53.328Z,18.30
2023-05-11T05:20:56.337Z,18.34
2023-05-11T05:26:00.048Z,18.47
2023-05-11T05:31:01.966Z,18.52
2023-05-11T05:36:05.722Z,18.62
2023-05-11T05:41:07.527Z,18.69
2023-05-11T05:46:13.374Z,18.67
2023-05-11T05:51:16.610Z,18.84
2023-05-11T05:56:18.515Z,18.97
2023-05-11T06:01:20.440Z,18.70
2023-05-11T06:06:23.532Z,18.84
2023-05-11T06:11:25.424Z,18.85
2023-05-11T06:16:28.124Z,18.81
2023-05-11T06:21:31.311Z,18.93
2023-05-11T06:26:33.789Z,18.96
2023-05-11T06:31:35.596Z,19.09
2023-05-11T06:36:38.760Z,18.92
2023-05-11T06:41:41.618Z,19.14
2023-05-11T06:46:43.503Z,19.29
2023-05-11T06:51:46.601Z,19.33
2023-05-11T06:56:48.942Z,19.43
2023-05-11T07:01:50.864Z,19.50
2023-05-11T07:06:54.330Z,19.56
2023-05-11T07:11:56.097Z,19.72
2023-05-11T07:16:57.857Z,19.74
2023-05-11T07:22:02.017Z,19.82
2023-05-11T07:27:03.865Z,19.98
2023-05-11T07:32:05.668Z,19.83
2023-05-11T07:37:08.763Z,19.70
2023-05-11T07:42:10.560Z,19.82
2023-05-11T07:47:13.307Z,19.65
2023-05-11T07:52:16.423Z,19.85
2023-05-11T07:57:18.854Z,19.73
2023-05-11T08:02:20.640Z,19.86
2023-05-11T08:07:23.763Z,19.92
2023-05-11T08:12:25.533Z,20.01
2023-05-11T08:17:27.283Z,19.94
2023-05-11T08:22:30.878Z,19.87
2023-05-11T08:27:32.589Z,19.79
2023-05-11T08:32:50.176Z,19.69
2023-05-11T08:37:58.398Z,19.70
2023-05-11T08:43:00.211Z,19.91
2023-05-11T08:48:03.183Z,20.06
2023-05-11T08:53:06.189Z,20.09
2023-05-11T08:58:08.251Z,20.05
2023-05-11T09:03:10.118Z,20.22
2023-05-11T09:08:13.513Z,20.17
2023-05-11T09:13:15.335Z,20.33
2023-05-11T09:18:17.023Z,20.17
2023-05-11T09:23:20.877Z,20.41
2023-05-11T09:28:25.604Z,20.44
2023-05-11T09:33:27.658Z,20.55
2023-05-11T09:38:30.749Z,20.64
2023-05-11T09:43:33.417Z,20.76
2023-05-11T09:48:35.763Z,20.89
2023-05-11T09:53:41.158Z,20.74
2023-05-11T09:58:47.441Z,20.81
2023-05-11T10:03:51.028Z,20.83
2023-05-11T10:08:54.200Z,20.86
2023-05-11T10:13:55.969Z,21.13
2023-05-11T10:18:57.729Z,21.31
2023-05-11T10:24:00.845Z,21.48
2023-05-11T10:29:02.877Z,21.89
2023-05-11T10:34:04.922Z,21.88
2023-05-11T10:39:07.993Z,21.93
2023-05-11T10:44:32.231Z,21.89
2023-05-11T10:49:43.112Z,22.06
2023-05-11T10:54:52.350Z,22.31
2023-05-11T11:00:16.924Z,22.72
2023-05-11T11:05:32.704Z,22.97
2023-05-11T11:10:36.578Z,23.50
2023-05-11T11:16:08.150Z,23.47
2023-05-11T11:21:13.765Z,23.29
2023-05-11T11:26:19.303Z,22.98
2023-05-11T11:31:25.394Z,22.79
2023-05-11T11:37:03.414Z,22.89
2023-05-11T11:42:08.061Z,23.16
2023-05-11T11:47:13.729Z,23.43
2023-05-11T11:52:32.763Z,23.49
2023-05-11T11:57:49.218Z,23.27
2023-05-11T12:02:50.992Z,23.14
2023-05-11T12:07:53.320Z,23.17
2023-05-11T12:12:59.801Z,23.15
2023-05-11T12:18:03.244Z,22.85
2023-05-11T12:23:05.011Z,22.69
2023-05-11T12:28:08.183Z,22.47
2023-05-11T12:33:09.952Z,21.96
2023-05-11T12:38:11.888Z,21.74
2023-05-11T12:43:18.006Z,21.42
2023-05-11T12:48:19.697Z,21.59
2023-05-11T12:58:24.435Z,21.26
2023-05-11T13:03:27.150Z,21.21
2023-05-11T13:08:29.302Z,21.31
2023-05-11T13:13:32.500Z,21.42
2023-05-11T13:18:34.318Z,21.38
2023-05-11T13:23:36.941Z,21.27
2023-05-11T13:28:40.053Z,21.35
2023-05-11T13:33:41.762Z,21.70
2023-05-11T13:38:43.557Z,21.67
2023-05-11T13:43:48.622Z,21.73
2023-05-11T13:48:50.325Z,22.07
2023-05-11T13:53:52.028Z,22.33
2023-05-11T13:58:55.866Z,22.66
2023-05-11T14:03:58.996Z,23.02
2023-05-11T14:09:00.721Z,23.30
2023-05-11T14:14:03.744Z,22.96
2023-05-11T14:19:05.516Z,22.98
2023-05-11T14:24:12.606Z,23.27
2023-05-11T14:29:15.901Z,23.32
2023-05-11T14:34:18.179Z,23.28
2023-05-11T14:39:19.906Z,23.44
2023-05-11T14:44:24.684Z,23.28
2023-05-11T14:49:26.448Z,23.31
2023-05-11T14:54:28.173Z,23.36
2023-05-11T14:59:31.243Z,23.63
2023-05-11T15:04:33.475Z,23.63
2023-05-11T15:09:35.883Z,23.59
2023-05-11T15:14:38.934Z,23.65
2023-05-11T15:19:40.676Z,23.70
2023-05-11T15:24:42.408Z,23.61
2023-05-11T15:29:45.502Z,23.70
2023-05-11T15:34:58.591Z,23.75
2023-05-11T15:40:01.747Z,23.72
2023-05-11T15:45:06.352Z,23.42
2023-05-11T15:50:09.252Z,23.35
2023-05-11T15:55:10.928Z,23.43
2023-05-11T16:00:15.462Z,23.40
2023-05-11T16:05:17.320Z,23.56
2023-05-11T16:10:19.327Z,23.66
2023-05-11T16:15:22.768Z,23.80
2023-05-11T16:20:24.494Z,23.95
2023-05-11T16:25:26.408Z,23.80
2023-05-11T16:30:30.572Z,23.71
2023-05-11T16:35:32.740Z,23.53
2023-05-11T16:40:34.483Z,23.27
2023-05-11T16:45:37.562Z,23.12
2023-05-11T16:50:39.315Z,23.12
2023-05-11T16:55:41.708Z,22.84
2023-05-11T17:00:44.753Z,22.86
2023-05-11T17:05:46.558Z,22.93
2023-05-11T17:10:48.316Z,22.95
2023-05-11T17:15:55.969Z,22.64
2023-05-11T17:20:57.773Z,21.96
2023-05-11T17:25:59.670Z,21.39
2023-05-11T17:31:08.758Z,21.02
2023-05-11T17:36:11.660Z,20.89
2023-05-11T17:41:14.427Z,20.76
2023-05-11T17:46:17.532Z,20.61
2023-05-11T17:51:20.253Z,20.92
2023-05-11T17:56:22.246Z,20.86
2023-05-11T18:01:27.355Z,20.86
2023-05-11T18:06:29.167Z,20.76
2023-05-11T18:11:31.078Z,20.61
2023-05-11T18:16:34.587Z,20.39
2023-05-11T18:21:36.666Z,20.41
2023-05-11T18:26:39.345Z,20.37
2023-05-11T18:31:42.469Z,20.24
2023-05-11T18:36:44.206Z,20.35
2023-05-11T18:41:45.929Z,20.27
2023-05-11T18:46:49.089Z,20.39
2023-05-11T18:51:50.901Z,20.32
2023-05-11T18:56:52.898Z,20.30
2023-05-11T19:01:56.126Z,20.36
2023-05-11T19:06:58.686Z,20.26
2023-05-11T19:12:00.500Z,20.28
2023-05-11T19:17:05.079Z,20.39
2023-05-11T19:22:09.109Z,20.35
2023-05-11T19:27:11.206Z,20.32
2023-05-11T19:32:14.576Z,20.40
2023-05-11T19:37:16.403Z,20.22
2023-05-11T19:42:23.536Z,20.10
2023-05-11T19:47:31.889Z,19.96
2023-05-11T19:52:33.686Z,20.15
2023-05-11T19:57:37.381Z,20.01
2023-05-11T20:02:40.653Z,20.06
2023-05-11T20:07:42.969Z,19.98
2023-05-11T20:12:44.825Z,19.86
2023-05-11T20:17:48.945Z,20.05
2023-05-11T20:22:50.688Z,20.12
2023-05-11T20:27:52.831Z,19.96
2023-05-11T20:38:01.199Z,19.98
2023-05-11T20:43:03.628Z,20.12
2023-05-11T20:48:06.887Z,20.00
2023-05-11T20:53:08.674Z,19.94
2023-05-11T20:58:10.946Z,19.88
2023-05-11T21:03:14.131Z,19.79
2023-05-11T21:08:15.937Z,20.04
2023-05-11T21:13:17.671Z,19.71
2023-05-11T21:18:20.809Z,19.66
2023-05-11T21:23:22.613Z,19.54
2023-05-11T21:28:27.148Z,19.43
2023-05-11T21:33:30.310Z,19.44
2023-05-11T21:38:32.303Z,19.54
2023-05-11T21:43:34.135Z,19.32
2023-05-11T21:48:37.262Z,19.40
2023-05-11T21:53:39.227Z,19.08
2023-05-11T21:58:41.608Z,19.20
2023-05-11T22:03:44.743Z,18.93
2023-05-11T22:08:46.566Z,18.72
2023-05-11T22:13:48.314Z,18.63
2023-05-11T22:18:51.394Z,18.89
2023-05-11T22:23:53.137Z,18.57
2023-05-11T22:28:54.931Z,18.56
2023-05-11T22:33:58.210Z,18.77
2023-05-11T22:38:59.915Z,18.38
2023-05-11T22:44:01.794Z,18.65
2023-05-11T22:49:04.876Z,18.31
2023-05-11T22:54:06.738Z,18.09
2023-05-11T22:59:08.649Z,18.05
2023-05-11T23:04:11.743Z,18.09
2023-05-11T23:09:13.523Z,18.02
2023-05-11T23:14:15.251Z,18.12
2023-05-11T23:19:18.448Z,18.06
2023-05-11T23:24:20.298Z,18.08
2023-05-11T23:29:22.050Z,17.86
2023-05-11T23:34:25.148Z,18.07
2023-05-11T23:39:26.852Z,18.00
2023-05-11T23:44:28.599Z,18.29
2023-05-11T23:49:31.723Z,18.25
2023-05-11T23:54:33.833Z,18.29
2023-05-11T23:59:35.636Z,18.36
